Time;durP1;ratioP1;P1;durP2;ratioP2;P2;SDS_P1;SDS_P2;PMS_P1;PMS_P2;Temp;Humidity;BMP_temperature;BMP_pressure;BME280_temperature;BME280_humidity;BME280_pressure;Samples;Min_cycle;Max_cycle;Signal;HPM_P1;HPM_P2
2024/02/05 00:01:16;;;;;;;10.07;6.30;;;;;;;;;;4987560;28;20217;-85
2024/02/05 00:03:43;;;;;;;8.43;6.10;;;;;;;;;;4990591;28;20242;-85
2024/02/05 00:06:10;;;;;;;8.03;6.60;;;;;;;;;;4962965;28;20212;-86
2024/02/05 00:08:36;;;;;;;6.57;5.83;;;;;;;;;;4985322;28;20253;-83
2024/02/05 00:11:01;;;;;;;5.83;5.23;;;;;;;;;;4981186;28;20216;-85
2024/02/05 00:13:30;;;;;;;5.77;5.17;;;;;;;;;;4994678;28;20709;-84
2024/02/05 00:16:00;;;;;;;6.60;5.97;;;;;;;;;;4987185;28;20249;-86
2024/02/05 00:18:26;;;;;;;7.03;5.80;;;;;;;;;;4982842;28;20245;-83
2024/02/05 00:20:52;;;;;;;6.13;5.50;;;;;;;;;;4982631;28;20220;-87
2024/02/05 00:23:20;;;;;;;6.47;5.50;;;;;;;;;;4994327;28;20236;-84
2024/02/05 00:25:46;;;;;;;7.90;5.90;;;;;;;;;;4988683;28;20259;-82
2024/02/05 00:28:16;;;;;;;6.27;5.67;;;;;;;;;;4985717;28;20695;-85
2024/02/05 00:30:42;;;;;;;8.73;5.67;;;;;;;;;;4983432;28;20717;-85
2024/02/05 00:33:07;;;;;;;7.90;5.67;;;;;;;;;;4981921;28;20220;-84
2024/02/05 00:35:33;;;;;;;6.70;5.20;;;;;;;;;;4992777;28;20231;-84
2024/02/05 00:37:58;;;;;;;7.13;5.30;;;;;;;;;;4985673;28;20250;-85
2024/02/05 00:40:26;;;;;;;6.13;4.93;;;;;;;;;;4985116;28;20220;-85
2024/02/05 00:42:56;;;;;;;7.80;5.07;;;;;;;;;;4975108;28;20308;-85
2024/02/05 00:45:24;;;;;;;7.90;4.73;;;;;;;;;;4983680;28;20243;-85
2024/02/05 00:47:52;;;;;;;5.63;4.43;;;;;;;;;;4962575;28;20570;-84
2024/02/05 00:50:17;;;;;;;5.83;4.43;;;;;;;;;;4985398;28;20226;-86
2024/02/05 00:52:47;;;;;;;7.03;4.10;;;;;;;;;;4961316;28;20637;-86
2024/02/05 00:55:13;;;;;;;5.97;3.47;;;;;;;;;;4999562;28;20235;-85
2024/02/05 00:57:38;;;;;;;5.47;4.00;;;;;;;;;;4983085;28;20216;-84
2024/02/05 01:00:10;;;;;;;4.27;3.47;;;;;;;;;;4992212;28;20228;-85
2024/02/05 01:02:38;;;;;;;6.20;3.57;;;;;;;;;;4985397;28;20221;-86
2024/02/05 01:05:05;;;;;;;3.47;2.73;;;;;;;;;;5001348;28;20251;-86
2024/02/05 01:07:31;;;;;;;3.83;3.53;;;;;;;;;;4998436;28;20315;-85
2024/02/05 01:09:59;;;;;;;5.90;3.23;;;;;;;;;;5000887;28;20295;-86
2024/02/05 01:12:27;;;;;;;6.80;3.80;;;;;;;;;;4993032;28;20276;-81
2024/02/05 01:14:58;;;;;;;4.53;3.60;;;;;;;;;;4989171;28;20217;-85
2024/02/05 01:17:25;;;;;;;3.63;2.63;;;;;;;;;;5001873;28;20223;-83
2024/02/05 01:19:51;;;;;;;5.37;3.47;;;;;;;;;;5001304;28;20217;-84
2024/02/05 01:22:17;;;;;;;3.33;2.97;;;;;;;;;;4985201;28;20266;-85
2024/02/05 01:24:47;;;;;;;3.90;2.90;;;;;;;;;;4990561;28;20229;-86
2024/02/05 01:27:15;;;;;;;6.30;3.90;;;;;;;;;;4996287;28;20205;-87
2024/02/05 01:29:43;;;;;;;5.37;3.40;;;;;;;;;;5002240;28;20215;-86
2024/02/05 01:32:11;;;;;;;4.87;3.03;;;;;;;;;;4963599;28;20224;-84
2024/02/05 01:34:41;;;;;;;4.60;3.00;;;;;;;;;;4981621;28;20586;-88
2024/02/05 01:37:09;;;;;;;5.40;3.47;;;;;;;;;;4996830;28;20204;-87
2024/02/05 01:39:37;;;;;;;6.90;3.37;;;;;;;;;;4987495;28;20216;-87
2024/02/05 01:42:04;;;;;;;4.70;3.53;;;;;;;;;;4995012;28;20211;-84
2024/02/05 01:44:32;;;;;;;6.70;3.63;;;;;;;;;;4979003;28;20413;-86
2024/02/05 01:46:58;;;;;;;8.13;3.50;;;;;;;;;;4984565;28;20315;-84
2024/02/05 01:49:26;;;;;;;6.13;3.60;;;;;;;;;;4984197;28;20209;-87
2024/02/05 01:51:56;;;;;;;3.77;3.10;;;;;;;;;;4973320;28;20224;-86
2024/02/05 01:54:24;;;;;;;5.87;3.07;;;;;;;;;;4979361;28;20300;-86
2024/02/05 01:56:52;;;;;;;6.23;3.17;;;;;;;;;;4982826;28;20236;-85
2024/02/05 01:59:17;;;;;;;4.00;2.40;;;;;;;;;;5002945;28;20227;-83
2024/02/05 02:01:43;;;;;;;6.87;3.00;;;;;;;;;;4991820;28;20897;-85
2024/02/05 02:04:08;;;;;;;4.20;2.30;;;;;;;;;;4981714;28;20712;-84
2024/02/05 02:06:35;;;;;;;6.07;2.60;;;;;;;;;;4991078;28;20212;-86
2024/02/05 02:09:01;;;;;;;4.23;2.60;;;;;;;;;;4991058;28;21560;-85
2024/02/05 02:11:29;;;;;;;4.30;2.63;;;;;;;;;;5001244;28;20213;-84
2024/02/05 02:13:54;;;;;;;3.30;2.50;;;;;;;;;;4997428;28;20232;-87
2024/02/05 02:16:21;;;;;;;5.00;2.93;;;;;;;;;;4962640;28;20223;-86
2024/02/05 02:18:47;;;;;;;4.40;2.70;;;;;;;;;;4974890;28;20251;-86
2024/02/05 02:21:14;;;;;;;2.80;2.47;;;;;;;;;;4989392;28;20212;-85
2024/02/05 02:23:41;;;;;;;3.40;2.47;;;;;;;;;;4996799;28;20240;-84
2024/02/05 02:26:07;;;;;;;5.60;2.73;;;;;;;;;;5001857;28;20227;-85
2024/02/05 02:28:35;;;;;;;5.17;2.50;;;;;;;;;;4981840;28;20213;-85
2024/02/05 02:31:00;;;;;;;5.63;2.33;;;;;;;;;;5008658;28;20208;-85
2024/02/05 02:33:49;;;;;;;4.93;2.67;;;;;;;;;;4979830;28;20224;-87
2024/02/05 02:36:18;;;;;;;7.07;2.73;;;;;;;;;;4990140;28;20307;-87
2024/02/05 02:38:48;;;;;;;5.80;2.80;;;;;;;;;;4978836;28;20678;-89
2024/02/05 02:41:21;;;;;;;4.07;2.43;;;;;;;;;;4986414;28;20251;-85
2024/02/05 02:44:01;;;;;;;4.03;2.50;;;;;;;;;;4995295;28;20228;-85
2024/02/05 02:46:32;;;;;;;4.83;2.80;;;;;;;;;;4975467;28;20228;-83
2024/02/05 02:48:58;;;;;;;2.30;2.00;;;;;;;;;;4981942;28;20263;-84
2024/02/05 02:51:28;;;;;;;5.50;2.27;;;;;;;;;;4979038;28;20217;-83
2024/02/05 02:53:55;;;;;;;3.43;2.07;;;;;;;;;;4991886;28;20676;-87
2024/02/05 02:56:20;;;;;;;2.80;1.80;;;;;;;;;;4964827;28;20213;-82
2024/02/05 02:58:46;;;;;;;2.77;1.90;;;;;;;;;;4996851;28;20733;-86
2024/02/05 03:01:16;;;;;;;2.73;2.10;;;;;;;;;;4977260;28;20859;-86
2024/02/05 03:03:44;;;;;;;2.17;1.73;;;;;;;;;;4978968;28;20224;-85
2024/02/05 03:06:12;;;;;;;3.23;1.90;;;;;;;;;;4988319;28;20593;-84
2024/02/05 03:08:40;;;;;;;2.37;1.80;;;;;;;;;;5004621;28;20216;-84
2024/02/05 03:11:08;;;;;;;2.50;1.70;;;;;;;;;;4992531;28;20631;-85
2024/02/05 03:13:34;;;;;;;1.67;1.57;;;;;;;;;;4997723;28;20224;-84
2024/02/05 03:15:59;;;;;;;3.67;1.70;;;;;;;;;;4980352;28;20571;-86
2024/02/05 03:18:28;;;;;;;1.90;1.30;;;;;;;;;;4963971;28;20579;-84
2024/02/05 03:20:54;;;;;;;2.53;1.60;;;;;;;;;;4995684;28;20303;-87
2024/02/05 03:23:22;;;;;;;2.60;1.60;;;;;;;;;;4987232;28;20235;-84
2024/02/05 03:25:50;;;;;;;2.33;1.50;;;;;;;;;;4976732;28;20279;-85
2024/02/05 03:28:18;;;;;;;2.57;1.70;;;;;;;;;;4983278;28;20217;-83
2024/02/05 03:30:44;;;;;;;1.60;1.30;;;;;;;;;;5005365;28;20588;-83
2024/02/05 03:33:14;;;;;;;2.67;1.30;;;;;;;;;;5000520;28;20338;-85
2024/02/05 03:35:42;;;;;;;2.43;1.40;;;;;;;;;;4998399;28;20232;-85
2024/02/05 03:38:07;;;;;;;3.23;1.30;;;;;;;;;;4993163;28;20281;-84
2024/02/05 03:40:35;;;;;;;4.00;1.40;;;;;;;;;;4977381;28;20227;-84
2024/02/05 03:43:03;;;;;;;2.13;1.40;;;;;;;;;;4979293;28;20677;-82
2024/02/05 03:45:30;;;;;;;2.50;1.40;;;;;;;;;;4994413;28;20237;-83
2024/02/05 03:47:55;;;;;;;1.73;1.27;;;;;;;;;;4972895;28;20678;-87
2024/02/05 03:50:23;;;;;;;1.93;1.33;;;;;;;;;;4979073;28;20247;-83
2024/02/05 03:52:49;;;;;;;3.50;1.27;;;;;;;;;;4990868;28;20261;-84
2024/02/05 03:55:18;;;;;;;3.17;1.63;;;;;;;;;;5000951;28;20700;-84
2024/02/05 03:57:45;;;;;;;3.63;2.10;;;;;;;;;;4999525;28;20308;-84
2024/02/05 04:04:00;;;;;;;3.13;1.87;;;;;;;;;;5035240;28;20242;-83
2024/02/05 04:06:25;;;;;;;3.53;1.90;;;;;;;;;;4985033;28;20228;-81
2024/02/05 04:08:51;;;;;;;5.10;2.30;;;;;;;;;;4990524;28;20232;-85
2024/02/05 04:11:16;;;;;;;3.70;2.50;;;;;;;;;;4987297;28;20327;-84
2024/02/05 04:13:42;;;;;;;4.20;2.63;;;;;;;;;;4968413;28;20285;-87
2024/02/05 04:16:16;;;;;;;5.03;2.67;;;;;;;;;;4994998;28;20228;-86
2024/02/05 04:18:41;;;;;;;4.67;3.13;;;;;;;;;;4991371;28;20228;-87
2024/02/05 04:21:11;;;;;;;5.87;3.30;;;;;;;;;;4996654;28;20278;-83
2024/02/05 04:23:37;;;;;;;8.03;3.30;;;;;;;;;;4961543;28;20231;-88
2024/02/05 04:26:14;;;;;;;7.87;3.60;;;;;;;;;;4975447;28;20220;-83
2024/02/05 04:28:42;;;;;;;7.27;3.70;;;;;;;;;;5002554;28;20237;-83
2024/02/05 04:31:07;;;;;;;6.97;3.70;;;;;;;;;;5002841;28;20228;-85
2024/02/05 04:33:33;;;;;;;6.80;3.80;;;;;;;;;;4993190;28;20221;-84
2024/02/05 04:35:59;;;;;;;9.23;4.60;;;;;;;;;;4986095;28;20232;-84
2024/02/05 04:38:24;;;;;;;7.77;4.10;;;;;;;;;;4981675;28;20216;-83
2024/02/05 04:40:52;;;;;;;14.27;5.23;;;;;;;;;;4987668;28;20215;-83
2024/02/05 04:43:18;;;;;;;12.17;5.23;;;;;;;;;;4963155;28;20684;-84
2024/02/05 04:45:43;;;;;;;8.87;4.27;;;;;;;;;;4999513;28;20232;-84
2024/02/05 04:48:09;;;;;;;13.03;5.67;;;;;;;;;;4998935;28;20225;-83
2024/02/05 04:50:34;;;;;;;10.00;5.03;;;;;;;;;;4976580;28;20225;-84
2024/02/05 04:53:00;;;;;;;16.43;6.40;;;;;;;;;;4988057;28;20239;-82
2024/02/05 04:55:28;;;;;;;14.33;5.50;;;;;;;;;;4975734;28;20220;-83
2024/02/05 04:57:53;;;;;;;17.10;6.03;;;;;;;;;;4992838;28;20251;-80
2024/02/05 05:00:24;;;;;;;19.27;6.67;;;;;;;;;;5006264;28;20287;-80
2024/02/05 05:02:49;;;;;;;15.90;6.53;;;;;;;;;;4987026;28;20636;-83
2024/02/05 05:05:15;;;;;;;16.23;7.07;;;;;;;;;;4985337;28;20222;-84
2024/02/05 05:07:43;;;;;;;22.37;7.87;;;;;;;;;;4986565;28;20611;-81
2024/02/05 05:10:08;;;;;;;19.43;7.70;;;;;;;;;;4987731;28;20876;-81
2024/02/05 05:12:34;;;;;;;21.43;8.07;;;;;;;;;;4996352;28;20212;-80
2024/02/05 05:15:02;;;;;;;22.17;7.10;;;;;;;;;;4987929;28;20238;-81
2024/02/05 05:17:27;;;;;;;23.23;8.70;;;;;;;;;;5000561;28;20224;-82
2024/02/05 05:19:54;;;;;;;18.40;7.20;;;;;;;;;;4990741;28;20228;-83
2024/02/05 05:22:22;;;;;;;23.33;9.30;;;;;;;;;;4963305;28;20213;-81
2024/02/05 05:24:52;;;;;;;31.90;9.67;;;;;;;;;;4986901;28;20275;-81
2024/02/05 05:27:20;;;;;;;25.97;9.17;;;;;;;;;;4975415;28;20220;-80
2024/02/05 05:29:46;;;;;;;19.80;7.63;;;;;;;;;;4977353;28;20325;-82
2024/02/05 05:32:14;;;;;;;24.27;6.47;;;;;;;;;;4985252;28;20220;-82
2024/02/05 05:34:40;;;;;;;22.77;9.53;;;;;;;;;;4986363;28;20216;-83
2024/02/05 05:37:06;;;;;;;32.07;9.50;;;;;;;;;;5004705;28;20918;-82
2024/02/05 05:39:31;;;;;;;24.77;9.23;;;;;;;;;;4999699;28;20231;-81
2024/02/05 05:41:57;;;;;;;24.87;9.40;;;;;;;;;;5001699;28;20228;-85
2024/02/05 05:44:24;;;;;;;24.50;8.93;;;;;;;;;;4983620;28;20229;-79
2024/02/05 05:46:50;;;;;;;20.93;10.20;;;;;;;;;;4989055;28;20242;-83
2024/02/05 05:49:15;;;;;;;24.03;9.33;;;;;;;;;;4974364;28;20214;-82
2024/02/05 05:51:41;;;;;;;27.37;10.60;;;;;;;;;;4985474;28;20216;-81
2024/02/05 05:54:09;;;;;;;25.90;10.40;;;;;;;;;;4988681;28;20236;-82
2024/02/05 05:56:37;;;;;;;28.27;9.80;;;;;;;;;;4987809;28;20275;-80
2024/02/05 05:59:02;;;;;;;27.50;9.47;;;;;;;;;;4991269;28;20229;-80
2024/02/05 06:01:28;;;;;;;25.00;8.93;;;;;;;;;;4992559;28;20232;-81
2024/02/05 06:03:53;;;;;;;27.67;9.47;;;;;;;;;;4966652;28;20808;-79
2024/02/05 06:06:19;;;;;;;23.77;7.97;;;;;;;;;;4973151;28;20263;-82
2024/02/05 06:08:44;;;;;;;25.23;9.33;;;;;;;;;;5023951;28;20235;-82
2024/02/05 06:11:10;;;;;;;22.23;7.73;;;;;;;;;;4999258;28;20228;-82
2024/02/05 06:13:38;;;;;;;18.33;7.37;;;;;;;;;;4999789;28;20239;-82
2024/02/05 06:16:09;;;;;;;24.23;8.13;;;;;;;;;;4983122;28;20290;-80
2024/02/05 06:18:35;;;;;;;23.90;9.03;;;;;;;;;;4996386;28;20239;-82
2024/02/05 06:21:00;;;;;;;28.80;8.63;;;;;;;;;;5009445;28;20225;-80
2024/02/05 06:23:26;;;;;;;24.07;8.77;;;;;;;;;;5010010;28;20227;-79
2024/02/05 06:25:54;;;;;;;19.80;9.10;;;;;;;;;;4983222;28;20228;-80
2024/02/05 06:28:19;;;;;;;24.67;8.70;;;;;;;;;;4999114;28;20293;-81
2024/02/05 06:30:49;;;;;;;23.40;8.57;;;;;;;;;;5001605;28;20903;-81
2024/02/05 06:33:18;;;;;;;24.77;8.30;;;;;;;;;;4976664;28;20263;-80
2024/02/05 06:35:44;;;;;;;25.77;9.50;;;;;;;;;;4997801;28;20225;-80
2024/02/05 06:38:12;;;;;;;28.10;9.23;;;;;;;;;;5005920;28;20228;-80
2024/02/05 06:40:38;;;;;;;21.93;8.67;;;;;;;;;;4976332;28;20220;-82
2024/02/05 06:43:08;;;;;;;27.57;8.80;;;;;;;;;;4981563;28;20747;-80
2024/02/05 06:45:38;;;;;;;27.70;8.13;;;;;;;;;;4999911;28;20232;-82
2024/02/05 06:48:04;;;;;;;21.30;8.40;;;;;;;;;;5009210;28;20254;-85
2024/02/05 06:50:30;;;;;;;28.93;9.17;;;;;;;;;;4988325;28;20300;-82
2024/02/05 06:52:58;;;;;;;31.23;8.53;;;;;;;;;;4968086;28;20217;-80
2024/02/05 06:55:24;;;;;;;22.17;7.60;;;;;;;;;;4977318;28;20315;-81
2024/02/05 06:57:49;;;;;;;25.23;9.03;;;;;;;;;;4995837;28;20269;-83
2024/02/05 07:00:15;;;;;;;27.60;9.17;;;;;;;;;;4991859;28;20220;-83
2024/02/05 07:02:41;;;;;;;25.30;8.90;;;;;;;;;;4991483;28;20795;-82
2024/02/05 07:05:09;;;;;;;23.10;7.97;;;;;;;;;;4989296;28;20319;-81
2024/02/05 07:07:35;;;;;;;31.10;9.33;;;;;;;;;;4980514;28;20229;-83
2024/02/05 07:10:00;;;;;;;27.67;7.73;;;;;;;;;;4981879;28;20208;-80
2024/02/05 07:12:26;;;;;;;22.17;8.17;;;;;;;;;;4985463;28;20216;-81
2024/02/05 07:14:53;;;;;;;26.90;8.50;;;;;;;;;;4980869;28;20248;-82
2024/02/05 07:17:33;;;;;;;26.50;8.97;;;;;;;;;;4985293;28;20782;-83
2024/02/05 07:20:01;;;;;;;28.73;8.33;;;;;;;;;;4993984;28;20243;-82
2024/02/05 07:22:27;;;;;;;19.90;7.80;;;;;;;;;;4954083;28;20257;-82
2024/02/05 07:24:55;;;;;;;27.23;7.43;;;;;;;;;;4984921;28;20733;-81
2024/02/05 07:27:25;;;;;;;26.90;7.73;;;;;;;;;;4983908;28;20260;-82
2024/02/05 07:29:52;;;;;;;25.20;7.63;;;;;;;;;;4981481;28;20244;-82
2024/02/05 07:32:18;;;;;;;26.13;8.10;;;;;;;;;;4995095;28;20275;-86
2024/02/05 07:34:49;;;;;;;30.43;7.90;;;;;;;;;;4991640;28;20245;-82
2024/02/05 07:37:14;;;;;;;26.10;7.73;;;;;;;;;;4999097;28;20235;-84
2024/02/05 07:39:40;;;;;;;24.63;7.53;;;;;;;;;;4976023;28;20225;-82
2024/02/05 07:42:06;;;;;;;24.17;7.50;;;;;;;;;;4999211;28;20224;-81
2024/02/05 07:44:31;;;;;;;19.73;7.13;;;;;;;;;;4995200;28;20310;-79
2024/02/05 07:46:59;;;;;;;21.53;7.57;;;;;;;;;;5000016;28;20266;-78
2024/02/05 07:49:27;;;;;;;23.03;7.37;;;;;;;;;;4976692;28;20255;-82
2024/02/05 07:51:54;;;;;;;19.43;6.67;;;;;;;;;;4992924;28;20208;-83
2024/02/05 07:54:27;;;;;;;20.13;6.00;;;;;;;;;;4982784;28;20212;-81
2024/02/05 07:56:52;;;;;;;20.30;6.50;;;;;;;;;;4997246;28;20231;-82
2024/02/05 07:59:18;;;;;;;18.60;5.87;;;;;;;;;;4987456;28;20223;-80
2024/02/05 08:01:44;;;;;;;17.50;5.60;;;;;;;;;;4997774;28;20318;-84
2024/02/05 08:04:09;;;;;;;21.97;6.10;;;;;;;;;;4998933;28;20298;-82
2024/02/05 08:06:35;;;;;;;16.37;4.97;;;;;;;;;;4978525;28;20286;-79
2024/02/05 08:09:06;;;;;;;18.30;5.80;;;;;;;;;;4998103;28;20229;-80
2024/02/05 08:11:31;;;;;;;20.33;5.70;;;;;;;;;;4998027;28;20616;-80
2024/02/05 08:13:57;;;;;;;15.80;5.97;;;;;;;;;;4991804;28;20223;-82
2024/02/05 08:16:25;;;;;;;17.27;5.57;;;;;;;;;;4990857;28;20219;-84
2024/02/05 08:18:51;;;;;;;16.87;5.37;;;;;;;;;;4967414;28;20358;-82
2024/02/05 08:21:16;;;;;;;21.27;6.27;;;;;;;;;;4981181;28;20311;-84
2024/02/05 08:23:47;;;;;;;16.93;5.63;;;;;;;;;;5000161;28;20220;-79
2024/02/05 08:26:15;;;;;;;17.63;5.90;;;;;;;;;;5005169;28;20243;-82
2024/02/05 08:28:42;;;;;;;12.53;4.90;;;;;;;;;;4998568;28;21174;-83
2024/02/05 08:31:08;;;;;;;15.50;5.53;;;;;;;;;;4981529;28;20220;-82
2024/02/05 08:33:33;;;;;;;16.37;5.80;;;;;;;;;;4999366;28;20581;-80
2024/02/05 08:35:59;;;;;;;18.90;5.63;;;;;;;;;;4998989;28;20234;-83
2024/02/05 08:38:24;;;;;;;24.07;6.27;;;;;;;;;;4983567;28;20265;-82
2024/02/05 08:40:50;;;;;;;19.73;5.83;;;;;;;;;;4994041;28;20232;-82
2024/02/05 08:43:15;;;;;;;19.50;6.53;;;;;;;;;;4987534;28;20231;-81
2024/02/05 08:45:41;;;;;;;17.60;6.20;;;;;;;;;;4993123;28;20626;-82
2024/02/05 08:48:07;;;;;;;18.77;7.00;;;;;;;;;;4982872;28;20281;-80
2024/02/05 08:50:33;;;;;;;20.60;6.10;;;;;;;;;;5009525;28;20237;-82
2024/02/05 08:53:01;;;;;;;16.87;5.70;;;;;;;;;;4995986;28;20220;-81
2024/02/05 08:55:27;;;;;;;17.80;5.83;;;;;;;;;;4989764;28;20716;-80
2024/02/05 08:57:52;;;;;;;20.87;6.10;;;;;;;;;;4980043;28;20220;-80
2024/02/05 09:00:19;;;;;;;21.97;6.17;;;;;;;;;;4985027;28;20282;-81
2024/02/05 09:02:54;;;;;;;14.53;5.83;;;;;;;;;;4992340;28;20225;-80
2024/02/05 09:05:23;;;;;;;19.73;6.30;;;;;;;;;;4994544;28;20239;-81
2024/02/05 09:07:51;;;;;;;15.40;6.20;;;;;;;;;;4966662;28;20228;-83
2024/02/05 09:10:19;;;;;;;16.53;6.10;;;;;;;;;;4958902;28;20241;-81
2024/02/05 09:12:44;;;;;;;15.63;6.47;;;;;;;;;;4979061;28;20209;-81
2024/02/05 09:15:10;;;;;;;24.83;6.77;;;;;;;;;;4984541;28;20311;-80
2024/02/05 09:17:38;;;;;;;19.77;6.57;;;;;;;;;;5017064;28;20228;-81
2024/02/05 09:20:04;;;;;;;19.13;6.43;;;;;;;;;;4998799;28;20220;-81
2024/02/05 09:22:32;;;;;;;19.50;6.00;;;;;;;;;;4993738;28;20227;-83
2024/02/05 09:25:00;;;;;;;18.83;6.20;;;;;;;;;;4994230;28;20311;-84
2024/02/05 09:27:26;;;;;;;17.60;5.83;;;;;;;;;;4975983;28;20232;-80
2024/02/05 09:29:54;;;;;;;17.10;5.93;;;;;;;;;;5003279;28;20295;-81
2024/02/05 09:32:21;;;;;;;17.80;5.97;;;;;;;;;;5005585;28;20249;-83
2024/02/05 09:34:47;;;;;;;18.83;6.33;;;;;;;;;;4987673;28;20236;-81
2024/02/05 09:37:15;;;;;;;21.10;5.87;;;;;;;;;;5012009;28;20224;-82
2024/02/05 09:39:40;;;;;;;14.67;6.30;;;;;;;;;;4985276;28;20287;-80
2024/02/05 09:42:08;;;;;;;20.17;6.03;;;;;;;;;;5000836;28;20238;-80
2024/02/05 09:44:37;;;;;;;19.37;6.20;;;;;;;;;;5004288;28;20407;-81
2024/02/05 09:47:03;;;;;;;20.30;6.07;;;;;;;;;;5000231;28;20224;-80
2024/02/05 09:49:29;;;;;;;17.33;5.40;;;;;;;;;;4988623;28;20223;-80
2024/02/05 09:51:57;;;;;;;20.53;6.00;;;;;;;;;;4984018;28;20632;-81
2024/02/05 09:54:22;;;;;;;19.63;6.00;;;;;;;;;;5003314;28;20244;-84
2024/02/05 09:56:51;;;;;;;22.57;6.10;;;;;;;;;;4979887;28;20205;-78
2024/02/05 09:59:19;;;;;;;21.47;6.17;;;;;;;;;;4993938;28;20221;-83
2024/02/05 10:01:45;;;;;;;18.03;6.53;;;;;;;;;;4983366;28;20216;-81
2024/02/05 10:04:10;;;;;;;15.30;5.60;;;;;;;;;;4995737;28;20287;-81
2024/02/05 10:06:39;;;;;;;16.47;5.30;;;;;;;;;;4991431;28;20244;-81
2024/02/05 10:09:08;;;;;;;16.57;5.60;;;;;;;;;;4978391;28;20312;-78
2024/02/05 10:11:35;;;;;;;19.60;5.70;;;;;;;;;;4973843;28;20639;-80
2024/02/05 10:14:01;;;;;;;21.10;6.60;;;;;;;;;;4981720;28;20261;-81
2024/02/05 10:16:26;;;;;;;16.47;5.73;;;;;;;;;;4980540;28;20253;-79
2024/02/05 10:18:52;;;;;;;21.07;6.17;;;;;;;;;;5008805;28;20258;-79
2024/02/05 10:21:21;;;;;;;15.73;5.00;;;;;;;;;;4984801;28;20231;-80
2024/02/05 10:23:55;;;;;;;19.77;6.37;;;;;;;;;;4977247;28;20644;-79
2024/02/05 10:26:24;;;;;;;17.00;5.90;;;;;;;;;;4987135;28;20760;-79
2024/02/05 10:28:50;;;;;;;25.20;5.63;;;;;;;;;;4989880;28;20307;-80
2024/02/05 10:31:18;;;;;;;22.27;5.53;;;;;;;;;;4997502;28;20216;-78
2024/02/05 10:33:46;;;;;;;19.27;5.40;;;;;;;;;;4989419;28;20216;-81
2024/02/05 10:36:14;;;;;;;17.00;5.30;;;;;;;;;;5000451;28;20220;-80
2024/02/05 10:38:39;;;;;;;19.43;5.40;;;;;;;;;;4979312;28;20220;-79
2024/02/05 10:41:05;;;;;;;19.07;6.17;;;;;;;;;;4985173;28;20224;-81
2024/02/05 10:43:31;;;;;;;21.77;6.10;;;;;;;;;;4993533;28;20228;-81
2024/02/05 10:45:57;;;;;;;20.43;5.47;;;;;;;;;;4979451;28;20229;-81
2024/02/05 10:48:27;;;;;;;24.90;6.53;;;;;;;;;;5009289;28;20212;-82
2024/02/05 10:50:55;;;;;;;18.07;5.67;;;;;;;;;;5004077;28;20640;-81
2024/02/05 10:53:23;;;;;;;19.40;4.97;;;;;;;;;;5008208;28;20216;-80
2024/02/05 10:55:50;;;;;;;18.67;5.03;;;;;;;;;;5004166;28;20229;-80
2024/02/05 10:58:15;;;;;;;20.47;7.23;;;;;;;;;;4985200;28;20221;-81
2024/02/05 11:00:43;;;;;;;19.10;5.30;;;;;;;;;;5011075;28;20273;-82
2024/02/05 11:03:09;;;;;;;18.50;5.60;;;;;;;;;;4989356;28;20771;-78
2024/02/05 11:05:40;;;;;;;19.33;5.33;;;;;;;;;;4982941;28;21048;-82
2024/02/05 11:08:12;;;;;;;18.37;4.40;;;;;;;;;;4993951;28;20278;-82
2024/02/05 11:10:45;;;;;;;21.93;6.60;;;;;;;;;;5005788;28;20228;-82
2024/02/05 11:13:28;;;;;;;19.53;5.97;;;;;;;;;;5012948;28;20224;-81
2024/02/05 11:15:56;;;;;;;19.97;5.63;;;;;;;;;;4973862;28;20228;-79
2024/02/05 11:18:32;;;;;;;24.00;5.80;;;;;;;;;;4982126;28;20223;-80
2024/02/05 11:20:59;;;;;;;21.47;6.20;;;;;;;;;;5003373;28;20692;-82
2024/02/05 11:23:26;;;;;;;18.00;5.00;;;;;;;;;;4998325;28;20225;-81
2024/02/05 11:25:52;;;;;;;18.17;5.43;;;;;;;;;;4968934;28;20235;-82
2024/02/05 11:28:17;;;;;;;19.73;5.77;;;;;;;;;;4997943;28;20212;-83
2024/02/05 11:30:43;;;;;;;20.03;6.30;;;;;;;;;;4982054;28;20294;-80
2024/02/05 11:33:12;;;;;;;22.00;6.63;;;;;;;;;;4995652;28;20254;-81
2024/02/05 11:36:07;;;;;;;19.37;5.00;;;;;;;;;;4959715;28;20220;-79
2024/02/05 11:38:35;;;;;;;13.00;5.23;;;;;;;;;;4989228;28;20265;-82
2024/02/05 11:41:00;;;;;;;18.40;5.20;;;;;;;;;;4982442;28;20220;-80
2024/02/05 11:43:26;;;;;;;15.67;5.17;;;;;;;;;;4997712;28;20217;-81
2024/02/05 11:45:54;;;;;;;22.23;6.03;;;;;;;;;;5014271;28;20249;-82
2024/02/05 11:48:20;;;;;;;20.33;6.60;;;;;;;;;;4996019;28;20228;-80
2024/02/05 11:50:47;;;;;;;17.97;5.67;;;;;;;;;;4967785;28;20316;-80
2024/02/05 11:53:13;;;;;;;21.43;5.90;;;;;;;;;;4964439;28;20216;-81
2024/02/05 11:55:39;;;;;;;17.73;5.57;;;;;;;;;;4971839;28;20302;-80
2024/02/05 11:58:05;;;;;;;15.50;5.67;;;;;;;;;;5003001;28;20221;-82
2024/02/05 12:00:33;;;;;;;13.17;4.87;;;;;;;;;;4985096;28;20219;-81
2024/02/05 12:02:58;;;;;;;19.57;5.80;;;;;;;;;;4979194;28;20220;-81
2024/02/05 12:05:24;;;;;;;19.07;6.53;;;;;;;;;;4979556;28;20245;-83
2024/02/05 12:07:50;;;;;;;16.80;5.50;;;;;;;;;;4971483;28;20251;-80
2024/02/05 12:10:16;;;;;;;15.23;5.87;;;;;;;;;;4983845;28;20610;-82
2024/02/05 12:12:42;;;;;;;16.27;5.23;;;;;;;;;;4995488;28;20216;-82
2024/02/05 12:15:25;;;;;;;19.17;5.50;;;;;;;;;;4989397;28;20236;-83
2024/02/05 12:17:58;;;;;;;17.90;5.63;;;;;;;;;;4980325;28;20220;-82
2024/02/05 12:20:26;;;;;;;19.67;5.30;;;;;;;;;;5010106;28;20329;-81
2024/02/05 12:22:52;;;;;;;18.33;5.90;;;;;;;;;;5004693;28;20702;-81
2024/02/05 12:25:17;;;;;;;22.23;5.87;;;;;;;;;;4992031;28;20227;-80
2024/02/05 12:27:43;;;;;;;19.73;5.67;;;;;;;;;;4985226;28;20221;-81
2024/02/05 12:30:11;;;;;;;16.70;4.97;;;;;;;;;;4992747;28;20261;-79
2024/02/05 12:32:39;;;;;;;17.93;5.37;;;;;;;;;;4981257;28;20229;-82
2024/02/05 12:35:16;;;;;;;16.73;5.10;;;;;;;;;;4982511;28;21084;-83
2024/02/05 12:37:41;;;;;;;18.60;5.03;;;;;;;;;;4983246;28;20703;-81
2024/02/05 12:40:10;;;;;;;13.07;5.10;;;;;;;;;;4982015;28;20232;-83
2024/02/05 12:42:36;;;;;;;14.63;5.07;;;;;;;;;;4994517;28;20243;-82
2024/02/05 12:45:03;;;;;;;16.27;5.63;;;;;;;;;;4998846;28;20220;-82
2024/02/05 12:47:29;;;;;;;18.83;5.07;;;;;;;;;;4983349;28;20232;-84
2024/02/05 12:49:56;;;;;;;14.97;5.70;;;;;;;;;;5003523;28;20216;-80
2024/02/05 12:52:22;;;;;;;18.03;5.33;;;;;;;;;;5014176;28;20278;-82
2024/02/05 12:54:49;;;;;;;17.27;5.20;;;;;;;;;;5008923;28;20627;-79
2024/02/05 12:57:15;;;;;;;12.47;4.67;;;;;;;;;;4989111;28;20236;-81
2024/02/05 12:59:40;;;;;;;14.33;4.93;;;;;;;;;;4987941;28;20224;-81
2024/02/05 13:02:08;;;;;;;18.60;5.53;;;;;;;;;;4991132;28;20260;-80
2024/02/05 13:04:35;;;;;;;13.77;4.90;;;;;;;;;;5012058;28;20250;-85
2024/02/05 13:07:05;;;;;;;14.27;5.40;;;;;;;;;;4998526;28;20733;-82
2024/02/05 13:09:35;;;;;;;13.37;4.53;;;;;;;;;;4981867;28;20213;-80
2024/02/05 13:12:01;;;;;;;16.63;5.33;;;;;;;;;;4984433;28;20224;-80
2024/02/05 13:14:28;;;;;;;18.07;5.33;;;;;;;;;;4987462;28;20246;-82
2024/02/05 13:16:56;;;;;;;15.50;5.63;;;;;;;;;;5000281;28;20607;-81
2024/02/05 13:19:24;;;;;;;15.27;5.40;;;;;;;;;;5020775;28;20223;-82
2024/02/05 13:21:50;;;;;;;12.27;4.30;;;;;;;;;;4991354;28;20220;-82
2024/02/05 13:24:18;;;;;;;15.10;4.37;;;;;;;;;;5002361;28;20678;-83
2024/02/05 13:26:48;;;;;;;16.63;5.70;;;;;;;;;;5000459;28;21012;-81
2024/02/05 13:29:16;;;;;;;14.87;5.07;;;;;;;;;;4983124;28;20311;-80
2024/02/05 13:31:45;;;;;;;17.67;5.37;;;;;;;;;;4996784;28;20230;-81
2024/02/05 13:34:13;;;;;;;13.33;4.60;;;;;;;;;;4998842;28;20231;-81
2024/02/05 13:36:39;;;;;;;14.90;4.83;;;;;;;;;;4985841;28;20215;-82
2024/02/05 13:39:09;;;;;;;16.27;5.40;;;;;;;;;;5012799;28;20252;-82
2024/02/05 13:41:42;;;;;;;14.07;5.33;;;;;;;;;;4973782;28;20699;-82
2024/02/05 13:44:13;;;;;;;16.47;5.40;;;;;;;;;;4986262;28;20952;-83
2024/02/05 13:46:44;;;;;;;16.47;4.87;;;;;;;;;;4995027;28;20224;-83
2024/02/05 13:49:09;;;;;;;13.73;4.73;;;;;;;;;;4979793;28;20219;-82
2024/02/05 13:51:35;;;;;;;16.10;4.63;;;;;;;;;;5018513;28;20253;-82
2024/02/05 13:54:01;;;;;;;16.13;5.10;;;;;;;;;;5003499;28;20236;-82
2024/02/05 13:56:27;;;;;;;12.73;4.90;;;;;;;;;;4996897;28;20290;-83
2024/02/05 13:58:52;;;;;;;15.30;4.70;;;;;;;;;;5001587;28;20541;-80
2024/02/05 14:01:19;;;;;;;17.53;4.77;;;;;;;;;;4994452;28;20220;-85
2024/02/05 14:03:45;;;;;;;14.27;4.47;;;;;;;;;;5019917;28;20322;-77
2024/02/05 14:06:11;;;;;;;13.23;4.93;;;;;;;;;;5013570;28;20225;-82
2024/02/05 14:08:37;;;;;;;13.03;4.50;;;;;;;;;;4994537;28;20212;-81
2024/02/05 14:11:03;;;;;;;16.20;5.30;;;;;;;;;;4991976;28;20216;-84
2024/02/05 14:13:31;;;;;;;12.50;4.40;;;;;;;;;;4984706;28;20246;-81
2024/02/05 14:15:56;;;;;;;24.20;4.73;;;;;;;;;;4996663;28;20216;-83
2024/02/05 14:18:25;;;;;;;16.63;4.80;;;;;;;;;;4993881;28;20213;-80
2024/02/05 14:20:50;;;;;;;15.80;4.73;;;;;;;;;;4979856;28;20216;-81
2024/02/05 14:23:16;;;;;;;13.43;4.83;;;;;;;;;;4999947;28;20239;-84
